Aeroporto :
LOGIN :

Iscrizione | Disclaimer

   EN    FR    IT 

 










Sommario :    VFR   VFR Marginale   IFR   IFR Intensivo   IFR Molto Intensivo
Visibilità : 
Base nubi : 
>= 8 km
>= 3000ft
5 / 8 km
1000 / 3000 ft
1500m / 5 km
500 / 1000 ft
800 / 1500m
200 / 500 ft
< 800m
< 200 ft
Simboli :   Temporali  Nebbia  Neve Forte  Precipitazioni Forti  Vento > 20 kt
SIGMETs :   Varie  Temporali  Ghiacco  Turbolenza  Onda orograficha  Ceneri Vulcaniche







- Altitudine del aeroporto : 313 ft
- Carte del aeroporto


LFQA - Reims-Prunay

ULTIMO METAR :
  • 230930Z AUTO VRB03KT 9999 1900 FEW003 27/15 Q1018

METARs OBSOLETI :
  • 230900Z AUTO 06004KT 360V100 CAVOK 27/14 Q1018
  • 230830Z AUTO VRB03KT //// // NSC 26/16 Q1018
  • 230800Z AUTO VRB01KT CAVOK 25/16 Q1018
  • 230730Z AUTO VRB02KT CAVOK 24/15 Q1018
  • 230700Z AUTO 31004KT CAVOK 22/15 Q1018

TAF N/A
Nessun NOTAM noto per questo aeroporto.



MetMap, La meteo Aeronautica in un colpo d'occhio ! - Copyright ORBIFLY Dicembre 2007 - Disclaimer

ORBIFLY MET'MAP TEAM :

Programmazione e sviluppo : Alexandra Zaïnal
Concezione e sviluppo : Baudouin d'Aumeries
Co-Programmazione e sviluppo : Marc-Olivier Méhu
Supporto tecnico e logistico : Manuel Goepfert
Aiuto per la traduzione : Arnaldo La Scala

Contatto : metmap@orbifly.com




FONTI E CREDITI :

   NOAA